Time;durP1;ratioP1;P1;durP2;ratioP2;P2;SDS_P1;SDS_P2;PMS_P1;PMS_P2;Temp;Humidity;BMP_temperature;BMP_pressure;BME280_temperature;BME280_humidity;BME280_pressure;Samples;Min_cycle;Max_cycle;Signal;HPM_P1;HPM_P2
2023/01/17 00:01:28;;;;;;;;;;;;;;;-17.68;37.85;99073.94;6260778;28;20489;-66
2023/01/17 00:11:15;;;;;;;;;;;;;;;-17.72;38.05;99077.81;6291314;28;19925;-64
2023/01/17 00:14:16;;;;;;;;;;;;;;;-17.75;38.42;99077.59;6272222;28;20426;-64
2023/01/17 00:17:20;;;;;;;;;;;;;;;-17.75;38.11;99077.59;6282048;28;19932;-64
2023/01/17 01:35:24;;;;;;;;;;;;;;;-17.42;37.69;99058.41;6282843;28;19925;-64
2023/01/17 01:38:25;;;;;;;;;;;;;;;-17.59;37.92;99064.59;6276747;28;20405;-65
2023/01/17 01:41:28;;;;;;;;;;;;;;;-17.72;38.14;99052.69;6275122;28;19963;-65
2023/01/17 01:44:43;;;;;;;;;;;;;;;-17.78;38.02;99049.72;6299496;28;19928;-64
2023/01/17 01:47:45;;;;;;;;;;;;;;;-17.82;38.21;99049.38;6287683;28;19931;-64
2023/01/17 01:50:47;;;;;;;;;;;;;;;-17.77;37.97;99051.47;6301328;28;19924;-64
2023/01/17 01:53:51;;;;;;;;;;;;;;;-17.75;38.00;99049.03;6285079;28;19928;-64
2023/01/17 01:56:53;;;;;;;;;;;;;;;-17.79;38.02;99047.97;6274636;28;20039;-64
2023/01/17 01:59:57;;;;;;;;;;;;;;;-17.82;38.42;99039.31;6262945;28;19924;-64
2023/01/17 02:03:02;;;;;;;;;;;;;;;-17.83;38.14;99040.94;6264435;28;19925;-64
2023/01/17 02:06:11;;;;;;;;;;;;;;;-17.80;38.08;99037.78;6287959;28;19931;-65
2023/01/17 02:09:14;;;;;;;;;;;;;;;-17.76;38.28;99028.06;6274982;28;19932;-65
2023/01/17 02:12:16;;;;;;;;;;;;;;;-17.76;38.42;99035.59;6258604;28;19964;-64
2023/01/17 02:15:17;;;;;;;;;;;;;;;-17.79;38.69;99029.50;6272269;28;19924;-64
2023/01/17 02:18:21;;;;;;;;;;;;;;;-17.85;39.16;99039.94;6249531;28;19932;-64
2023/01/17 02:21:23;;;;;;;;;;;;;;;-17.90;38.86;99036.16;6282016;28;19924;-65
2023/01/17 02:24:36;;;;;;;;;;;;;;;-17.92;38.94;99043.56;6274911;28;19925;-65
2023/01/17 02:27:55;;;;;;;;;;;;;;;-17.92;39.07;99060.28;6254173;28;19925;-65
2023/01/17 02:31:01;;;;;;;;;;;;;;;-17.95;38.57;99052.50;6263424;28;19924;-65
2023/01/17 02:34:05;;;;;;;;;;;;;;;-18.00;38.59;99048.75;6252709;28;19936;-64
2023/01/17 02:37:10;;;;;;;;;;;;;;;-18.04;39.35;99045.13;6292006;28;20382;-65
2023/01/17 02:40:34;;;;;;;;;;;;;;;-18.04;39.27;99044.25;6261031;28;19925;-65
2023/01/17 02:43:36;;;;;;;;;;;;;;;-18.01;39.08;99064.59;6264275;28;19924;-65
2023/01/17 02:46:47;;;;;;;;;;;;;;;-17.99;39.51;99071.50;6269142;28;20322;-64
2023/01/17 02:49:49;;;;;;;;;;;;;;;-17.96;39.35;99061.69;6252787;28;19925;-65
2023/01/17 02:53:08;;;;;;;;;;;;;;;-17.93;39.93;99066.97;6267031;28;20413;-65
2023/01/17 02:56:38;;;;;;;;;;;;;;;-17.93;39.57;99068.59;6262479;28;19935;-65
2023/01/17 02:59:45;;;;;;;;;;;;;;;-17.94;39.45;99074.41;6222723;28;19925;-65
2023/01/17 03:02:58;;;;;;;;;;;;;;;-17.96;39.17;99075.91;6252610;28;19925;-64
2023/01/17 03:06:02;;;;;;;;;;;;;;;-17.99;40.17;99073.16;6259045;28;19932;-64
2023/01/17 03:09:03;;;;;;;;;;;;;;;-18.01;39.71;99070.50;6247497;28;19935;-65
2023/01/17 03:12:04;;;;;;;;;;;;;;;-18.03;39.50;99078.66;6271175;28;19932;-64
2023/01/17 03:15:09;;;;;;;;;;;;;;;-18.07;39.30;99071.63;6267646;28;20025;-64
2023/01/17 03:18:15;;;;;;;;;;;;;;;-18.10;39.55;99073.91;6266834;28;20290;-64
2023/01/17 03:21:16;;;;;;;;;;;;;;;-18.13;39.19;99072.03;6269480;28;19925;-64
2023/01/17 03:24:17;;;;;;;;;;;;;;;-18.16;39.17;99072.66;6289219;28;19921;-64
2023/01/17 03:27:18;;;;;;;;;;;;;;;-18.16;39.48;99077.66;6265391;28;19986;-65
2023/01/17 03:30:20;;;;;;;;;;;;;;;-18.18;39.16;99089.22;6277691;28;19925;-64
2023/01/17 03:33:23;;;;;;;;;;;;;;;-18.18;39.17;99081.69;6261460;28;20294;-67
2023/01/17 03:36:40;;;;;;;;;;;;;;;-18.20;39.24;99077.28;6263581;28;19929;-65
2023/01/17 03:39:40;;;;;;;;;;;;;;;-18.22;39.20;99084.72;6285715;28;19924;-64
2023/01/17 03:42:44;;;;;;;;;;;;;;;-18.24;38.83;99083.69;6270289;28;19925;-64
2023/01/17 03:45:49;;;;;;;;;;;;;;;-18.27;39.04;99092.63;6266208;28;20389;-65
2023/01/17 03:48:50;;;;;;;;;;;;;;;-18.31;39.85;99095.63;6261025;28;19925;-64
2023/01/17 03:51:51;;;;;;;;;;;;;;;-18.36;38.94;99093.63;6271096;28;19925;-65
2023/01/17 03:54:54;;;;;;;;;;;;;;;-18.41;39.08;99094.00;6272619;28;19920;-64
2023/01/17 03:57:55;;;;;;;;;;;;;;;-18.44;39.66;99087.09;6296031;28;19969;-64
2023/01/17 04:00:56;;;;;;;;;;;;;;;-18.45;39.76;99091.97;6296561;28;20386;-64
2023/01/17 04:03:57;;;;;;;;;;;;;;;-18.46;39.72;99090.22;6286783;28;19924;-66
2023/01/17 04:06:58;;;;;;;;;;;;;;;-18.48;39.71;99096.72;6308211;28;19947;-64
2023/01/17 04:09:59;;;;;;;;;;;;;;;-18.46;39.15;99100.25;6273176;28;19928;-65
2023/01/17 04:13:00;;;;;;;;;;;;;;;-18.47;39.47;99103.53;6274215;28;19990;-65
2023/01/17 04:16:01;;;;;;;;;;;;;;;-18.48;39.94;99106.78;6283490;28;19924;-64
2023/01/17 04:19:02;;;;;;;;;;;;;;;-18.48;39.57;99096.72;6279361;28;19935;-64
2023/01/17 04:22:06;;;;;;;;;;;;;;;-18.47;39.49;99101.03;6288153;28;19924;-65
2023/01/17 04:25:09;;;;;;;;;;;;;;;-18.43;39.68;99100.50;6293677;28;19924;-65
2023/01/17 04:28:12;;;;;;;;;;;;;;;-18.40;39.33;99105.78;6280590;28;19924;-64
2023/01/17 04:31:15;;;;;;;;;;;;;;;-18.29;39.71;99110.06;6292650;28;19931;-64
2023/01/17 04:34:16;;;;;;;;;;;;;;;-18.14;39.25;99106.31;6294216;28;19932;-65
2023/01/17 04:37:17;;;;;;;;;;;;;;;-18.02;39.19;99110.59;6286897;28;20007;-64
2023/01/17 04:40:18;;;;;;;;;;;;;;;-17.98;39.50;99117.63;6276369;28;19932;-64
2023/01/17 04:43:19;;;;;;;;;;;;;;;-17.95;39.40;99117.88;6279542;28;19925;-64
2023/01/17 04:46:20;;;;;;;;;;;;;;;-17.89;40.13;99130.94;6276167;28;19939;-63
2023/01/17 04:49:21;;;;;;;;;;;;;;;-17.87;39.22;99126.91;6300353;28;20032;-64
2023/01/17 04:52:22;;;;;;;;;;;;;;;-17.82;39.11;99125.66;6296938;28;19924;-65
2023/01/17 04:55:23;;;;;;;;;;;;;;;-17.76;39.52;99138.69;6269918;28;19991;-65
2023/01/17 04:58:26;;;;;;;;;;;;;;;-17.70;39.19;99131.63;6289616;28;20332;-65
2023/01/17 05:01:29;;;;;;;;;;;;;;;-17.63;39.37;99139.69;6278371;28;19944;-65
2023/01/17 05:04:30;;;;;;;;;;;;;;;-17.58;39.07;99140.94;6297440;28;19925;-64
2023/01/17 05:07:31;;;;;;;;;;;;;;;-17.50;39.17;99155.88;6277910;28;20500;-65
2023/01/17 05:10:32;;;;;;;;;;;;;;;-17.40;39.09;99162.56;6281933;28;20311;-65
2023/01/17 05:13:33;;;;;;;;;;;;;;;-17.31;39.14;99153.22;6294552;28;19924;-65
2023/01/17 05:16:37;;;;;;;;;;;;;;;-17.16;38.48;99157.72;6287095;28;19931;-64
2023/01/17 05:19:38;;;;;;;;;;;;;;;-16.94;38.16;99153.59;6286561;28;19928;-64
2023/01/17 05:22:39;;;;;;;;;;;;;;;-16.71;37.60;99154.50;6290973;28;19924;-64
2023/01/17 05:25:43;;;;;;;;;;;;;;;-16.55;37.37;99155.78;6289000;28;19925;-66
2023/01/17 05:28:46;;;;;;;;;;;;;;;-16.31;37.02;99151.75;6272947;28;20394;-75
2023/01/17 05:31:52;;;;;;;;;;;;;;;-16.13;36.68;99153.91;6269193;28;19929;-75
2023/01/17 05:34:58;;;;;;;;;;;;;;;-15.90;36.26;99159.03;6274043;28;19920;-74
2023/01/17 05:38:01;;;;;;;;;;;;;;;-15.63;36.36;99159.28;6274776;28;19960;-75
2023/01/17 05:41:04;;;;;;;;;;;;;;;-15.62;36.00;99156.00;6281282;28;19921;-75
2023/01/17 05:44:07;;;;;;;;;;;;;;;-15.69;36.08;99158.88;6289092;28;19931;-76
2023/01/17 05:47:08;;;;;;;;;;;;;;;-15.60;36.15;99156.97;6252916;28;19929;-75
2023/01/17 05:50:12;;;;;;;;;;;;;;;-15.49;35.96;99158.66;6269928;28;19925;-75
2023/01/17 05:53:17;;;;;;;;;;;;;;;-15.41;35.91;99160.09;6281843;28;20437;-75
2023/01/17 05:56:21;;;;;;;;;;;;;;;-15.36;36.09;99157.91;6268735;28;19936;-75
2023/01/17 05:59:25;;;;;;;;;;;;;;;-15.32;35.70;99162.41;6276095;28;20012;-75
2023/01/17 06:02:28;;;;;;;;;;;;;;;-15.25;35.59;99161.22;6257446;28;19924;-75
2023/01/17 06:05:31;;;;;;;;;;;;;;;-15.18;35.80;99161.75;6256906;28;20477;-75
2023/01/17 06:08:35;;;;;;;;;;;;;;;-15.08;35.44;99158.25;6266659;28;20386;-76
2023/01/17 06:11:36;;;;;;;;;;;;;;;-15.05;35.73;99155.06;6246548;28;19925;-74
2023/01/17 06:14:37;;;;;;;;;;;;;;;-15.02;35.61;99162.88;6245501;28;19924;-74
2023/01/17 06:17:40;;;;;;;;;;;;;;;-14.82;35.36;99157.56;6263650;28;19939;-74
2023/01/17 06:20:43;;;;;;;;;;;;;;;-14.80;35.35;99165.25;6259058;28;19925;-75
2023/01/17 06:23:48;;;;;;;;;;;;;;;-14.75;34.89;99166.44;6261031;28;19928;-75
2023/01/17 06:26:49;;;;;;;;;;;;;;;-14.62;34.75;99163.16;6255614;28;19932;-75
2023/01/17 06:29:52;;;;;;;;;;;;;;;-14.61;34.75;99158.19;6262329;28;19929;-75
2023/01/17 06:32:55;;;;;;;;;;;;;;;-14.53;34.61;99159.59;6278217;28;20346;-75
2023/01/17 06:35:56;;;;;;;;;;;;;;;-14.47;34.85;99144.81;6253181;28;20308;-75
2023/01/17 06:38:58;;;;;;;;;;;;;;;-14.39;34.82;99157.13;6247853;28;19925;-74
2023/01/17 06:42:02;;;;;;;;;;;;;;;-14.30;34.52;99155.22;6246213;28;20857;-75
2023/01/17 06:45:03;;;;;;;;;;;;;;;-14.21;34.54;99153.31;6247165;28;19925;-75
2023/01/17 06:48:05;;;;;;;;;;;;;;;-14.07;34.69;99156.78;6255935;28;19932;-75
2023/01/17 06:51:08;;;;;;;;;;;;;;;-13.92;34.75;99159.50;6249690;28;19925;-75
2023/01/17 06:54:12;;;;;;;;;;;;;;;-13.79;34.64;99151.94;6266940;28;20297;-75
2023/01/17 06:57:15;;;;;;;;;;;;;;;-13.63;34.14;99153.84;6267295;28;20345;-76
2023/01/17 07:00:18;;;;;;;;;;;;;;;-13.41;34.58;99156.13;6281764;28;19988;-75
2023/01/17 07:03:23;;;;;;;;;;;;;;;-13.16;34.07;99154.38;6281493;28;19924;-76
2023/01/17 07:06:29;;;;;;;;;;;;;;;-12.89;33.97;99156.91;6291885;28;19920;-66
2023/01/17 07:09:32;;;;;;;;;;;;;;;-12.59;34.28;99149.50;6274714;28;19928;-67
2023/01/17 07:12:39;;;;;;;;;;;;;;;-12.18;33.52;99148.59;6288288;28;20402;-67
2023/01/17 07:15:40;;;;;;;;;;;;;;;-11.89;33.39;99143.59;6290697;28;19931;-69
2023/01/17 07:18:44;;;;;;;;;;;;;;;-11.70;33.25;99135.38;6285901;28;19929;-67
2023/01/17 07:21:45;;;;;;;;;;;;;;;-11.35;33.30;99142.50;6293700;28;20302;-67
2023/01/17 07:24:57;;;;;;;;;;;;;;;-10.20;32.53;99130.09;6292065;28;19925;-67
2023/01/17 07:28:00;;;;;;;;;;;;;;;-5.01;28.71;99135.25;6293618;28;20294;-67
2023/01/17 07:31:07;;;;;;;;;;;;;;;1.16;23.77;99136.19;6281643;28;19928;-66
2023/01/17 07:34:09;;;;;;;;;;;;;;;6.34;20.76;99128.56;6290591;28;19925;-68
2023/01/17 07:37:10;;;;;;;;;;;;;;;10.26;18.80;99135.81;6287529;28;20282;-68
2023/01/17 07:40:11;;;;;;;;;;;;;;;13.17;17.76;99141.16;6279006;28;19925;-69
2023/01/17 07:43:15;;;;;;;;;;;;;;;15.38;17.10;99140.38;6283960;28;19939;-68
2023/01/17 07:46:16;;;;;;;;;;;;;;;16.91;16.96;99126.38;6281381;28;19930;-69
2023/01/17 07:49:19;;;;;;;;;;;;;;;18.22;16.73;99132.22;6287080;28;19924;-68
2023/01/17 07:52:23;;;;;;;;;;;;;;;19.20;16.26;99140.34;6288981;28;19924;-68
2023/01/17 07:55:24;;;;;;;;;;;;;;;20.00;15.18;99136.94;6272047;28;20773;-67
2023/01/17 07:58:25;;;;;;;;;;;;;;;20.44;15.60;99139.28;6282465;28;19924;-67
2023/01/17 08:01:26;;;;;;;;;;;;;;;21.16;16.00;99134.19;6304641;28;19981;-68
2023/01/17 08:04:33;;;;;;;;;;;;;;;22.52;15.15;99136.53;6300119;28;20030;-68
2023/01/17 08:07:37;;;;;;;;;;;;;;;23.36;13.72;99138.88;6301605;28;20419;-67
2023/01/17 08:10:38;;;;;;;;;;;;;;;23.57;15.14;99131.72;6272193;28;19924;-68
2023/01/17 08:13:40;;;;;;;;;;;;;;;23.72;13.12;99132.31;6261651;28;19924;-68
2023/01/17 08:16:44;;;;;;;;;;;;;;;24.01;14.66;99127.22;6310273;28;19931;-68
2023/01/17 08:19:45;;;;;;;;;;;;;;;24.12;14.53;99135.22;6290402;28;19925;-67
2023/01/17 08:22:51;;;;;;;;;;;;;;;24.26;14.83;99130.47;6274200;28;20417;-68
2023/01/17 08:26:01;;;;;;;;;;;;;;;24.22;14.34;99124.50;6282202;28;20337;-68
2023/01/17 08:29:06;;;;;;;;;;;;;;;24.19;14.26;99130.16;6260844;28;19925;-67
2023/01/17 08:32:07;;;;;;;;;;;;;;;24.06;14.10;99130.38;6284590;28;20274;-68
2023/01/17 08:35:11;;;;;;;;;;;;;;;23.81;14.15;99120.81;6284077;28;19932;-68
2023/01/17 08:38:12;;;;;;;;;;;;;;;23.84;13.67;99125.09;6294835;28;20321;-68
2023/01/17 08:41:15;;;;;;;;;;;;;;;23.60;13.74;99123.41;6270706;28;19928;-68
2023/01/17 08:44:18;;;;;;;;;;;;;;;23.60;13.50;99127.94;6280306;28;20403;-68
2023/01/17 08:47:25;;;;;;;;;;;;;;;23.36;13.47;99125.44;6270744;28;19956;-67
2023/01/17 08:50:29;;;;;;;;;;;;;;;22.73;13.69;99128.63;6279557;28;19931;-68
2023/01/17 08:53:30;;;;;;;;;;;;;;;22.08;13.55;99127.38;6289377;28;20440;-70
2023/01/17 08:56:34;;;;;;;;;;;;;;;22.42;13.21;99117.63;6275347;28;19925;-67
2023/01/17 08:59:38;;;;;;;;;;;;;;;22.78;12.87;99118.38;6262808;28;19924;-67
2023/01/17 09:02:40;;;;;;;;;;;;;;;22.92;12.81;99116.41;6270406;28;20024;-68
2023/01/17 09:05:43;;;;;;;;;;;;;;;22.80;12.23;99116.44;6307196;28;19943;-67
2023/01/17 09:08:50;;;;;;;;;;;;;;;22.60;12.02;99117.16;6301733;28;19928;-67
2023/01/17 09:11:54;;;;;;;;;;;;;;;22.16;12.33;99110.69;6276405;28;20418;-68
2023/01/17 09:14:57;;;;;;;;;;;;;;;21.79;12.50;99113.50;6296711;28;19931;-67
2023/01/17 09:18:01;;;;;;;;;;;;;;;21.61;12.25;99106.84;6272689;28;20318;-67
2023/01/17 09:21:12;;;;;;;;;;;;;;;21.54;12.42;99109.13;6312039;28;20034;-68
2023/01/17 09:24:13;;;;;;;;;;;;;;;21.26;12.27;99103.09;6305603;28;19921;-67
2023/01/17 09:27:17;;;;;;;;;;;;;;;20.50;12.47;99106.75;6280277;28;19924;-67
2023/01/17 09:30:20;;;;;;;;;;;;;;;19.90;12.61;99099.28;6270151;28;19929;-67
2023/01/17 09:33:26;;;;;;;;;;;;;;;19.05;12.74;99106.63;6290552;28;20339;-67
2023/01/17 09:36:32;;;;;;;;;;;;;;;18.44;11.17;99102.47;6279442;28;19932;-66
2023/01/17 09:39:35;;;;;;;;;;;;;;;17.33;11.70;99100.97;6304404;28;20062;-67
2023/01/17 09:42:39;;;;;;;;;;;;;;;15.60;11.26;99100.38;6314296;28;19924;-67
2023/01/17 09:45:40;;;;;;;;;;;;;;;15.03;11.47;99089.00;6319321;28;19939;-67
2023/01/17 09:48:44;;;;;;;;;;;;;;;14.91;11.48;99092.25;6309103;28;19924;-66
2023/01/17 09:51:45;;;;;;;;;;;;;;;14.48;10.81;99094.19;6294974;28;19997;-67
2023/01/17 09:54:47;;;;;;;;;;;;;;;13.28;11.12;99082.63;6278289;28;19928;-67
2023/01/17 09:57:54;;;;;;;;;;;;;;;12.05;10.82;99085.44;6282044;28;19931;-67
2023/01/17 10:01:04;;;;;;;;;;;;;;;11.34;11.13;99083.44;6303311;28;20393;-67
2023/01/17 10:04:09;;;;;;;;;;;;;;;11.07;11.65;99083.44;6298154;28;19931;-68
2023/01/17 10:07:28;;;;;;;;;;;;;;;10.71;11.55;99086.28;6296240;28;19925;-66
2023/01/17 10:10:46;;;;;;;;;;;;;;;10.87;11.13;99084.06;6298152;28;19924;-67
2023/01/17 10:13:52;;;;;;;;;;;;;;;10.84;11.83;99085.91;6304964;28;20404;-67
2023/01/17 10:17:07;;;;;;;;;;;;;;;10.84;11.75;99085.91;6306189;28;20014;-67
2023/01/17 10:20:32;;;;;;;;;;;;;;;10.69;11.10;99082.81;6288189;28;19925;-68
2023/01/17 10:23:52;;;;;;;;;;;;;;;10.24;11.66;99085.00;6295707;28;19931;-68
2023/01/17 10:26:55;;;;;;;;;;;;;;;10.06;11.35;99084.59;6274011;28;19964;-67
2023/01/17 10:29:59;;;;;;;;;;;;;;;9.70;11.59;99086.44;6280023;28;20310;-67
2023/01/17 10:33:02;;;;;;;;;;;;;;;8.46;12.68;99084.97;6289457;28;19923;-66
2023/01/17 10:36:14;;;;;;;;;;;;;;;8.01;13.23;99090.22;6303524;28;20019;-67
2023/01/17 10:39:19;;;;;;;;;;;;;;;5.69;13.98;99095.28;6294544;28;20026;-67
2023/01/17 10:42:41;;;;;;;;;;;;;;;2.05;16.34;99087.50;6285943;28;19924;-67
2023/01/17 10:45:49;;;;;;;;;;;;;;;-0.87;17.47;99082.75;6276595;28;19937;-67
2023/01/17 10:48:55;;;;;;;;;;;;;;;-2.83;19.27;99090.88;6253153;28;19928;-67
2023/01/17 10:52:08;;;;;;;;;;;;;;;-4.09;20.14;99095.28;6274520;28;20383;-66
2023/01/17 10:55:27;;;;;;;;;;;;;;;-5.02;20.53;99090.72;6273265;28;19947;-66
2023/01/17 10:58:30;;;;;;;;;;;;;;;-5.68;20.79;99108.19;6279514;28;19925;-68
2023/01/17 11:01:34;;;;;;;;;;;;;;;-6.23;21.15;99101.09;6286484;28;19925;-67
2023/01/17 11:04:41;;;;;;;;;;;;;;;-6.64;20.83;99108.06;6312748;28;20535;-67
2023/01/17 11:07:55;;;;;;;;;;;;;;;-7.12;21.76;99103.63;6313393;28;19999;-67
2023/01/17 11:11:01;;;;;;;;;;;;;;;-7.51;22.17;99107.97;6275026;28;19928;-67
2023/01/17 11:14:17;;;;;;;;;;;;;;;-7.94;23.08;99116.34;6297362;28;20028;-68
2023/01/17 11:17:18;;;;;;;;;;;;;;;-8.51;22.58;99115.50;6289694;28;20594;-68
2023/01/17 11:20:25;;;;;;;;;;;;;;;-8.73;23.53;99109.41;6320110;28;19931;-66
2023/01/17 11:23:30;;;;;;;;;;;;;;;-8.87;24.47;99113.84;6283364;28;19924;-65
2023/01/17 11:26:35;;;;;;;;;;;;;;;-8.87;24.49;99115.53;6290182;28;20275;-65
2023/01/17 11:29:38;;;;;;;;;;;;;;;-9.46;25.88;99126.25;6282551;28;19925;-67
2023/01/17 11:32:51;;;;;;;;;;;;;;;-9.91;25.74;99125.66;6284530;28;19954;-66
2023/01/17 11:35:52;;;;;;;;;;;;;;;-10.35;25.59;99126.78;6274047;28;20014;-67
2023/01/17 11:39:04;;;;;;;;;;;;;;;-10.55;26.07;99124.06;6286374;28;19925;-66
2023/01/17 11:42:25;;;;;;;;;;;;;;;-10.88;26.70;99118.88;6291521;28;20390;-64
2023/01/17 11:45:30;;;;;;;;;;;;;;;-11.07;26.35;99116.09;6285842;28;19924;-65
2023/01/17 11:48:36;;;;;;;;;;;;;;;-11.15;25.51;99114.78;6282107;28;19924;-66
2023/01/17 11:51:41;;;;;;;;;;;;;;;-11.16;26.24;99125.75;6255690;28;20333;-64
2023/01/17 11:54:45;;;;;;;;;;;;;;;-11.23;27.08;99134.72;6283928;28;19925;-63
2023/01/17 11:57:49;;;;;;;;;;;;;;;-11.39;26.54;99135.47;6282162;28;19924;-62
2023/01/17 12:00:58;;;;;;;;;;;;;;;-11.67;26.66;99129.59;6296467;28;20489;-63
2023/01/17 12:04:18;;;;;;;;;;;;;;;-11.83;26.36;99138.88;6285889;28;19925;-62
2023/01/17 12:07:24;;;;;;;;;;;;;;;-11.87;26.87;99143.69;6271501;28;19920;-63
2023/01/17 12:10:44;;;;;;;;;;;;;;;-11.98;27.55;99138.84;6300206;28;19924;-62
2023/01/17 12:14:00;;;;;;;;;;;;;;;-12.05;26.54;99140.94;6294009;28;19921;-63
2023/01/17 12:17:24;;;;;;;;;;;;;;;-12.00;27.35;99140.44;6284958;28;20317;-63
2023/01/17 12:20:36;;;;;;;;;;;;;;;-12.05;28.81;99140.94;6270571;28;20039;-64
2023/01/17 12:23:39;;;;;;;;;;;;;;;-12.41;29.16;99150.59;6281701;28;19924;-62
2023/01/17 12:26:43;;;;;;;;;;;;;;;-12.52;29.27;99151.59;6292193;28;19931;-64
2023/01/17 12:30:02;;;;;;;;;;;;;;;-12.74;29.13;99150.25;6293309;28;20394;-63
2023/01/17 12:33:17;;;;;;;;;;;;;;;-12.85;29.41;99146.16;6301031;28;20014;-63
2023/01/17 12:36:37;;;;;;;;;;;;;;;-12.85;29.45;99146.16;6300510;28;19924;-61
2023/01/17 12:39:46;;;;;;;;;;;;;;;-13.03;28.77;99150.97;6261113;28;20500;-63
2023/01/17 12:42:53;;;;;;;;;;;;;;;-13.09;29.35;99165.78;6290594;28;19924;-62
2023/01/17 12:45:58;;;;;;;;;;;;;;;-13.16;29.31;99156.91;6309321;28;19925;-64
2023/01/17 12:49:07;;;;;;;;;;;;;;;-13.22;29.62;99161.56;6294682;28;19967;-63
2023/01/17 12:52:24;;;;;;;;;;;;;;;-13.25;29.23;99168.13;6271990;28;20074;-63
2023/01/17 12:55:43;;;;;;;;;;;;;;;-13.26;29.12;99172.31;6293187;28;20350;-64
2023/01/17 12:58:50;;;;;;;;;;;;;;;-13.13;30.08;99174.84;6284014;28;20841;-63
2023/01/17 13:01:57;;;;;;;;;;;;;;;-13.02;30.21;99174.63;6281884;28;19929;-65
2023/01/17 13:05:05;;;;;;;;;;;;;;;-13.11;30.63;99175.78;6281710;28;19924;-65
2023/01/17 13:08:12;;;;;;;;;;;;;;;-13.16;30.09;99174.66;6280634;28;19924;-63
2023/01/17 13:11:26;;;;;;;;;;;;;;;-13.13;29.45;99173.97;6277324;28;19924;-63
2023/01/17 13:14:27;;;;;;;;;;;;;;;-13.16;29.90;99184.78;6286623;28;20402;-64
2023/01/17 13:17:28;;;;;;;;;;;;;;;-13.17;30.14;99180.47;6283996;28;19931;-64
2023/01/17 13:20:43;;;;;;;;;;;;;;;-13.16;30.14;99174.66;6268936;28;19924;-63
2023/01/17 13:23:48;;;;;;;;;;;;;;;-13.13;30.51;99179.91;6254433;28;19951;-64
2023/01/17 13:26:51;;;;;;;;;;;;;;;-13.23;30.69;99176.69;6274610;28;19932;-63
2023/01/17 13:30:06;;;;;;;;;;;;;;;-13.28;30.40;99183.13;6277602;28;19925;-65
2023/01/17 13:33:11;;;;;;;;;;;;;;;-13.36;30.08;99183.53;6278287;28;20019;-64
2023/01/17 13:36:30;;;;;;;;;;;;;;;-13.45;30.18;99182.03;6281018;28;19924;-64
2023/01/17 13:39:45;;;;;;;;;;;;;;;-13.47;30.66;99186.09;6291088;28;19936;-63
2023/01/17 13:42:48;;;;;;;;;;;;;;;-13.63;30.32;99185.09;6282740;28;19924;-64
2023/01/17 13:45:54;;;;;;;;;;;;;;;-13.59;31.69;99181.97;6286745;28;19932;-62
2023/01/17 13:49:18;;;;;;;;;;;;;;;-13.84;31.46;99179.47;6288023;28;19925;-62
2023/01/17 13:52:24;;;;;;;;;;;;;;;-13.93;31.47;99178.84;6254631;28;19960;-64
2023/01/17 13:55:43;;;;;;;;;;;;;;;-13.96;32.42;99173.56;6284483;28;19924;-63
2023/01/17 13:59:05;;;;;;;;;;;;;;;-13.79;32.99;99172.19;6280575;28;19924;-64
2023/01/17 14:02:25;;;;;;;;;;;;;;;-13.88;33.52;99181.69;6289670;28;19924;-64
2023/01/17 14:05:29;;;;;;;;;;;;;;;-13.84;33.43;99173.53;6285676;28;19931;-64
2023/01/17 14:08:37;;;;;;;;;;;;;;;-13.72;34.68;99179.41;6293064;28;19974;-64
2023/01/17 14:11:50;;;;;;;;;;;;;;;-14.09;33.90;99181.13;6295027;28;20385;-64
2023/01/17 14:14:55;;;;;;;;;;;;;;;-14.29;33.72;99179.75;6285648;28;19924;-65
2023/01/17 14:18:00;;;;;;;;;;;;;;;-14.37;33.65;99173.28;6290892;28;19925;-63
2023/01/17 14:21:11;;;;;;;;;;;;;;;-14.16;34.32;99172.22;6288688;28;19932;-63
2023/01/17 14:24:15;;;;;;;;;;;;;;;-14.02;35.47;99178.22;6291624;28;19924;-65
2023/01/17 14:27:22;;;;;;;;;;;;;;;-14.41;35.32;99181.41;6291007;28;20382;-64
2023/01/17 14:30:23;;;;;;;;;;;;;;;-14.65;36.26;99184.03;6286780;28;19924;-63
2023/01/17 14:33:24;;;;;;;;;;;;;;;-14.44;35.99;99181.22;6296763;28;19964;-62
2023/01/17 14:36:25;;;;;;;;;;;;;;;-14.36;36.69;99190.22;6286530;28;19930;-65
2023/01/17 14:39:28;;;;;;;;;;;;;;;-14.31;37.01;99182.16;6294310;28;20409;-63
2023/01/17 14:42:31;;;;;;;;;;;;;;;-14.53;36.58;99178.94;6292948;28;19924;-64
2023/01/17 14:45:33;;;;;;;;;;;;;;;-14.68;36.81;99188.88;6288535;28;19932;-64
2023/01/17 14:48:38;;;;;;;;;;;;;;;-14.77;36.46;99191.63;6290018;28;19924;-63
2023/01/17 14:51:39;;;;;;;;;;;;;;;-14.66;36.81;99189.88;6291860;28;19987;-63
2023/01/17 14:54:47;;;;;;;;;;;;;;;-14.67;37.14;99185.56;6290616;28;19924;-64
2023/01/17 14:57:55;;;;;;;;;;;;;;;-14.65;36.79;99186.56;6290876;28;19924;-63
2023/01/17 15:01:03;;;;;;;;;;;;;;;-14.64;37.52;99183.25;6287163;28;19924;-64
2023/01/17 15:04:04;;;;;;;;;;;;;;;-14.91;36.91;99192.31;6314191;28;20393;-63
2023/01/17 15:07:05;;;;;;;;;;;;;;;-14.83;37.56;99190.28;6288617;28;19924;-64
2023/01/17 15:10:11;;;;;;;;;;;;;;;-15.02;37.83;99178.03;6289820;28;19925;-63
2023/01/17 15:13:14;;;;;;;;;;;;;;;-14.99;37.46;99181.63;6273170;28;19932;-63
2023/01/17 15:16:19;;;;;;;;;;;;;;;-15.16;37.35;99174.50;6281965;28;19924;-63
2023/01/17 15:19:23;;;;;;;;;;;;;;;-15.26;37.24;99172.94;6295717;28;19925;-63
2023/01/17 15:22:25;;;;;;;;;;;;;;;-15.38;37.11;99170.41;6286368;28;20314;-64
2023/01/17 15:25:26;;;;;;;;;;;;;;;-15.25;37.54;99172.19;6295487;28;19939;-63
2023/01/17 15:28:27;;;;;;;;;;;;;;;-15.36;37.17;99174.72;6303034;28;19924;-63
2023/01/17 15:31:49;;;;;;;;;;;;;;;-15.44;37.13;99174.13;6283451;28;19920;-62
2023/01/17 15:34:51;;;;;;;;;;;;;;;-15.54;36.83;99175.09;6286373;28;20058;-62
2023/01/17 15:37:57;;;;;;;;;;;;;;;-15.64;36.88;99170.16;6281348;28;19920;-64
2023/01/17 15:41:12;;;;;;;;;;;;;;;-15.73;36.71;99156.91;6294568;28;19924;-63
2023/01/17 15:44:30;;;;;;;;;;;;;;;-15.81;36.58;99160.50;6272323;28;19928;-64
2023/01/17 15:47:34;;;;;;;;;;;;;;;-15.88;36.66;99159.13;6279139;28;19934;-65
2023/01/17 15:50:38;;;;;;;;;;;;;;;-15.94;36.67;99161.19;6294300;28;19931;-63
2023/01/17 15:53:41;;;;;;;;;;;;;;;-15.97;36.66;99171.94;6291890;28;19924;-63
2023/01/17 15:56:44;;;;;;;;;;;;;;;-16.02;36.71;99168.19;6278887;28;20460;-64
2023/01/17 15:59:47;;;;;;;;;;;;;;;-16.06;36.67;99163.69;6285450;28;20413;-62
2023/01/17 16:02:57;;;;;;;;;;;;;;;-16.09;36.64;99153.38;6289645;28;19956;-63
2023/01/17 16:06:02;;;;;;;;;;;;;;;-16.11;36.37;99154.91;6285276;28;20305;-64
2023/01/17 16:09:17;;;;;;;;;;;;;;;-16.12;36.21;99160.72;6283198;28;19929;-63
2023/01/17 16:12:18;;;;;;;;;;;;;;;-16.13;36.58;99154.78;6288833;28;20015;-64
2023/01/17 16:15:23;;;;;;;;;;;;;;;-16.14;36.57;99153.00;6288811;28;19929;-64
2023/01/17 16:18:24;;;;;;;;;;;;;;;-16.11;36.47;99157.41;6271421;28;19924;-64
2023/01/17 16:21:27;;;;;;;;;;;;;;;-16.12;36.29;99159.06;6286789;28;20145;-64
2023/01/17 16:24:29;;;;;;;;;;;;;;;-16.12;36.13;99166.63;6274022;28;19924;-63
2023/01/17 16:27:30;;;;;;;;;;;;;;;-16.12;36.75;99160.72;6287085;28;19938;-63
2023/01/17 16:30:34;;;;;;;;;;;;;;;-16.15;36.41;99160.47;6275300;28;19924;-64
2023/01/17 16:33:35;;;;;;;;;;;;;;;-16.19;36.39;99166.94;6263229;28;20388;-63
2023/01/17 16:36:38;;;;;;;;;;;;;;;-16.20;36.29;99166.81;6274322;28;19920;-64
2023/01/17 16:39:39;;;;;;;;;;;;;;;-16.21;36.72;99175.16;6270975;28;19925;-64
2023/01/17 16:42:41;;;;;;;;;;;;;;;-16.24;36.45;99169.88;6266491;28;20350;-63
2023/01/17 16:45:44;;;;;;;;;;;;;;;-16.20;36.25;99155.06;6275586;28;20394;-62
2023/01/17 16:48:45;;;;;;;;;;;;;;;-15.90;37.52;99159.03;6276802;28;19924;-63
2023/01/17 16:51:46;;;;;;;;;;;;;;;-15.71;37.75;99165.44;6297678;28;19931;-63
2023/01/17 16:54:47;;;;;;;;;;;;;;;-15.87;37.75;99164.31;6282069;28;20055;-63
2023/01/17 16:57:54;;;;;;;;;;;;;;;-15.73;37.88;99169.50;6269692;28;20313;-63
2023/01/17 17:01:01;;;;;;;;;;;;;;;-15.92;37.66;99170.66;6284033;28;19978;-64
2023/01/17 17:04:02;;;;;;;;;;;;;;;-16.07;37.97;99169.50;6282300;28;20074;-66
2023/01/17 17:07:05;;;;;;;;;;;;;;;-16.17;38.84;99184.69;6255117;28;19924;-64
2023/01/17 17:10:07;;;;;;;;;;;;;;;-16.21;38.43;99185.22;6279698;28;19932;-64
2023/01/17 17:13:08;;;;;;;;;;;;;;;-16.27;38.68;99182.22;6285039;28;20418;-63
2023/01/17 17:16:30;;;;;;;;;;;;;;;-16.31;37.96;99176.94;6298904;28;19928;-63
2023/01/17 17:19:31;;;;;;;;;;;;;;;-16.21;37.64;99178.53;6282591;28;19929;-63